Ana Sayfa
METAR-TAF:

METAR-TAF

Havaalanları :

Lanzhou, Çin

Enlem: 36-02N, Boylam: 103-52E, yükseklik: 1518 m

Güncel hava durumu gözlemi

Rapor saat 03:00 UTC de 20 dakika önce yapıldı.
Rüzgar güney/güneybatıdan 8 kt
Sıcaklık 5°C
Nem 52%
Basınç 1018 hPa
Görüş mesafesi 10 km veya daha fazla
1500 m altında bulut yok ve kümülonimbus yok

METAR: ZLLL 280300Z 20004MPS CAVOK 05/M04 Q1018 NOSIG

Saat: 11:20 (03:20 UTC)

Tahmin

Rapor saat 21:06 UTC de 6 saat ve 14 dakika önce yapıldı.
Ayın 28'si saat 00 UTC'den ayın 28'si saat 24 UTC'ye kadar geçerli Tahmin
Rüzgar güney/güneybatıdan 6 kt
Görüş mesafesi: 6000 m

TAF: ZLLL 272106Z 2800/2824 20003MPS 6000 NSC TX15/2808Z TNM10/2800Z

4.000'den fazla havaalanı için hava durumu gözlemleri ve tahminleri (METAR ve TAF raporları).

Kullanılabilir istasyonlar harita üzerinde sarı ve kırmızı noktalarla gösterilir.

İstasyonun adını görmek için fareyi noktanın üzerinde gezdirin.

Sonrasında hava gözlem ve tahminlerini görmek için tıklayın.

Haritayı değiştirmek için: yaklaştırmak için siyah artı işaretli yeşil düğmeye ve uzaklaştırmak için de eksi işaretli düğmeye hızla tıklayın; bitişik haritalar için yeşil okları kullanın.


METAR-TAF: